sensor_id;sensor_type;location;lat;lon;timestamp;P1;durP1;ratioP1;P2;durP2;ratioP2
57599;SDS011;43426;43.594;24.334;2023-03-16T00:01:55;13.90;;;12.20;;
57599;SDS011;43426;43.594;24.334;2023-03-16T00:04:21;12.43;;;11.00;;
57599;SDS011;43426;43.594;24.334;2023-03-16T00:06:46;11.23;;;10.13;;
57599;SDS011;43426;43.594;24.334;2023-03-16T00:09:12;10.65;;;9.52;;
57599;SDS011;43426;43.594;24.334;2023-03-16T00:11:37;10.77;;;9.07;;
57599;SDS011;43426;43.594;24.334;2023-03-16T00:14:02;9.63;;;8.43;;
57599;SDS011;43426;43.594;24.334;2023-03-16T00:16:28;10.70;;;9.70;;
57599;SDS011;43426;43.594;24.334;2023-03-16T00:18:54;9.60;;;8.73;;
57599;SDS011;43426;43.594;24.334;2023-03-16T00:21:19;9.60;;;8.60;;
57599;SDS011;43426;43.594;24.334;2023-03-16T00:23:45;6.07;;;5.57;;
57599;SDS011;43426;43.594;24.334;2023-03-16T00:26:10;5.13;;;4.70;;
57599;SDS011;43426;43.594;24.334;2023-03-16T00:28:37;4.60;;;4.25;;
57599;SDS011;43426;43.594;24.334;2023-03-16T00:31:03;4.40;;;4.00;;
57599;SDS011;43426;43.594;24.334;2023-03-16T00:33:31;5.38;;;4.88;;
57599;SDS011;43426;43.594;24.334;2023-03-16T00:36:02;5.07;;;4.68;;
57599;SDS011;43426;43.594;24.334;2023-03-16T00:38:33;4.00;;;3.70;;
57599;SDS011;43426;43.594;24.334;2023-03-16T00:41:01;3.72;;;3.42;;
57599;SDS011;43426;43.594;24.334;2023-03-16T00:43:28;4.10;;;3.70;;
57599;SDS011;43426;43.594;24.334;2023-03-16T00:46:01;3.92;;;3.20;;
57599;SDS011;43426;43.594;24.334;2023-03-16T00:48:33;7.72;;;2.63;;
57599;SDS011;43426;43.594;24.334;2023-03-16T00:51:00;6.80;;;2.80;;
57599;SDS011;43426;43.594;24.334;2023-03-16T00:53:34;3.00;;;2.67;;
57599;SDS011;43426;43.594;24.334;2023-03-16T00:56:01;6.93;;;2.60;;
57599;SDS011;43426;43.594;24.334;2023-03-16T00:58:28;2.40;;;2.20;;
57599;SDS011;43426;43.594;24.334;2023-03-16T01:00:54;2.50;;;2.30;;
57599;SDS011;43426;43.594;24.334;2023-03-16T01:03:21;2.40;;;2.20;;
57599;SDS011;43426;43.594;24.334;2023-03-16T01:05:46;2.38;;;2.17;;
57599;SDS011;43426;43.594;24.334;2023-03-16T01:08:12;2.40;;;2.20;;
57599;SDS011;43426;43.594;24.334;2023-03-16T01:10:38;2.50;;;2.30;;
57599;SDS011;43426;43.594;24.334;2023-03-16T01:13:04;2.45;;;2.13;;
57599;SDS011;43426;43.594;24.334;2023-03-16T01:15:31;4.20;;;2.33;;
57599;SDS011;43426;43.594;24.334;2023-03-16T01:17:58;2.65;;;2.45;;
57599;SDS011;43426;43.594;24.334;2023-03-16T01:20:24;1.98;;;1.88;;
57599;SDS011;43426;43.594;24.334;2023-03-16T01:22:50;3.53;;;1.92;;
57599;SDS011;43426;43.594;24.334;2023-03-16T01:25:16;2.25;;;1.88;;
57599;SDS011;43426;43.594;24.334;2023-03-16T01:27:42;3.70;;;1.90;;
57599;SDS011;43426;43.594;24.334;2023-03-16T01:30:08;1.70;;;1.60;;
57599;SDS011;43426;43.594;24.334;2023-03-16T01:32:36;1.83;;;1.67;;
57599;SDS011;43426;43.594;24.334;2023-03-16T01:35:02;1.85;;;1.73;;
57599;SDS011;43426;43.594;24.334;2023-03-16T01:37:29;1.80;;;1.67;;
57599;SDS011;43426;43.594;24.334;2023-03-16T01:39:55;1.48;;;1.38;;
57599;SDS011;43426;43.594;24.334;2023-03-16T01:42:21;1.60;;;1.50;;
57599;SDS011;43426;43.594;24.334;2023-03-16T01:44:51;2.75;;;1.40;;
57599;SDS011;43426;43.594;24.334;2023-03-16T01:47:30;2.78;;;1.35;;
57599;SDS011;43426;43.594;24.334;2023-03-16T01:50:02;1.90;;;1.38;;
57599;SDS011;43426;43.594;24.334;2023-03-16T01:52:33;2.00;;;1.48;;
57599;SDS011;43426;43.594;24.334;2023-03-16T01:55:02;1.40;;;1.30;;
57599;SDS011;43426;43.594;24.334;2023-03-16T01:57:33;1.95;;;1.33;;
57599;SDS011;43426;43.594;24.334;2023-03-16T02:02:34;2.67;;;1.20;;
57599;SDS011;43426;43.594;24.334;2023-03-16T02:05:07;1.50;;;1.40;;
57599;SDS011;43426;43.594;24.334;2023-03-16T02:07:42;1.88;;;1.55;;
57599;SDS011;43426;43.594;24.334;2023-03-16T02:10:15;2.17;;;1.30;;
57599;SDS011;43426;43.594;24.334;2023-03-16T02:12:42;2.03;;;1.30;;
57599;SDS011;43426;43.594;24.334;2023-03-16T02:15:08;3.95;;;1.20;;
57599;SDS011;43426;43.594;24.334;2023-03-16T02:17:35;1.50;;;1.40;;
57599;SDS011;43426;43.594;24.334;2023-03-16T02:23:00;1.60;;;1.50;;
57599;SDS011;43426;43.594;24.334;2023-03-16T02:31:01;1.45;;;1.10;;
57599;SDS011;43426;43.594;24.334;2023-03-16T02:33:27;1.40;;;1.30;;
57599;SDS011;43426;43.594;24.334;2023-03-16T02:35:55;4.45;;;1.02;;
57599;SDS011;43426;43.594;24.334;2023-03-16T02:38:21;1.23;;;1.15;;
57599;SDS011;43426;43.594;24.334;2023-03-16T02:40:52;1.10;;;1.10;;
57599;SDS011;43426;43.594;24.334;2023-03-16T02:43:23;1.50;;;1.10;;
57599;SDS011;43426;43.594;24.334;2023-03-16T02:45:54;10.25;;;1.20;;
57599;SDS011;43426;43.594;24.334;2023-03-16T02:48:25;1.20;;;1.10;;
57599;SDS011;43426;43.594;24.334;2023-03-16T02:50:56;1.40;;;1.15;;
57599;SDS011;43426;43.594;24.334;2023-03-16T02:53:21;4.00;;;1.13;;
57599;SDS011;43426;43.594;24.334;2023-03-16T02:55:47;1.20;;;1.10;;
57599;SDS011;43426;43.594;24.334;2023-03-16T02:58:13;5.15;;;1.25;;
57599;SDS011;43426;43.594;24.334;2023-03-16T03:00:40;1.30;;;1.20;;
57599;SDS011;43426;43.594;24.334;2023-03-16T03:05:34;1.40;;;1.30;;
57599;SDS011;43426;43.594;24.334;2023-03-16T03:08:01;1.38;;;1.27;;
57599;SDS011;43426;43.594;24.334;2023-03-16T03:10:26;1.00;;;1.00;;
57599;SDS011;43426;43.594;24.334;2023-03-16T03:12:52;1.30;;;1.20;;
57599;SDS011;43426;43.594;24.334;2023-03-16T03:15:18;1.03;;;0.93;;
57599;SDS011;43426;43.594;24.334;2023-03-16T03:17:43;1.65;;;0.90;;
57599;SDS011;43426;43.594;24.334;2023-03-16T03:20:10;1.30;;;1.20;;
57599;SDS011;43426;43.594;24.334;2023-03-16T03:22:44;1.20;;;1.10;;
57599;SDS011;43426;43.594;24.334;2023-03-16T03:25:12;1.20;;;1.10;;
57599;SDS011;43426;43.594;24.334;2023-03-16T03:27:39;1.20;;;1.10;;
57599;SDS011;43426;43.594;24.334;2023-03-16T03:30:12;1.30;;;1.20;;
57599;SDS011;43426;43.594;24.334;2023-03-16T03:32:40;1.42;;;1.20;;
57599;SDS011;43426;43.594;24.334;2023-03-16T03:37:32;3.22;;;2.13;;
57599;SDS011;43426;43.594;24.334;2023-03-16T03:39:58;1.50;;;1.13;;
57599;SDS011;43426;43.594;24.334;2023-03-16T03:42:23;1.20;;;1.10;;
57599;SDS011;43426;43.594;24.334;2023-03-16T03:44:49;1.50;;;1.40;;
57599;SDS011;43426;43.594;24.334;2023-03-16T03:47:16;1.42;;;1.33;;
57599;SDS011;43426;43.594;24.334;2023-03-16T03:49:42;1.10;;;1.02;;
57599;SDS011;43426;43.594;24.334;2023-03-16T03:52:07;13.70;;;1.38;;
57599;SDS011;43426;43.594;24.334;2023-03-16T03:54:33;2.20;;;1.02;;
57599;SDS011;43426;43.594;24.334;2023-03-16T03:56:58;0.98;;;0.98;;
57599;SDS011;43426;43.594;24.334;2023-03-16T03:59:23;1.43;;;1.33;;
57599;SDS011;43426;43.594;24.334;2023-03-16T04:01:49;1.50;;;1.40;;
57599;SDS011;43426;43.594;24.334;2023-03-16T04:04:17;2.40;;;1.13;;
57599;SDS011;43426;43.594;24.334;2023-03-16T04:06:43;1.42;;;1.30;;
57599;SDS011;43426;43.594;24.334;2023-03-16T04:09:08;1.73;;;1.63;;
57599;SDS011;43426;43.594;24.334;2023-03-16T04:11:34;3.80;;;1.60;;
57599;SDS011;43426;43.594;24.334;2023-03-16T04:13:59;2.20;;;1.33;;
57599;SDS011;43426;43.594;24.334;2023-03-16T04:16:24;1.33;;;1.23;;
57599;SDS011;43426;43.594;24.334;2023-03-16T04:18:51;1.65;;;1.55;;
57599;SDS011;43426;43.594;24.334;2023-03-16T04:21:18;1.50;;;1.40;;
57599;SDS011;43426;43.594;24.334;2023-03-16T04:23:45;0.88;;;0.88;;
57599;SDS011;43426;43.594;24.334;2023-03-16T04:26:11;1.88;;;1.20;;
57599;SDS011;43426;43.594;24.334;2023-03-16T04:28:37;1.58;;;1.48;;
57599;SDS011;43426;43.594;24.334;2023-03-16T04:31:04;1.52;;;1.42;;
57599;SDS011;43426;43.594;24.334;2023-03-16T04:33:31;1.55;;;1.10;;
57599;SDS011;43426;43.594;24.334;2023-03-16T04:35:58;8.05;;;1.63;;
57599;SDS011;43426;43.594;24.334;2023-03-16T04:38:24;1.40;;;1.30;;
57599;SDS011;43426;43.594;24.334;2023-03-16T04:40:49;1.80;;;1.70;;
57599;SDS011;43426;43.594;24.334;2023-03-16T04:43:15;3.10;;;1.70;;
57599;SDS011;43426;43.594;24.334;2023-03-16T04:45:41;1.83;;;1.73;;
57599;SDS011;43426;43.594;24.334;2023-03-16T04:48:07;1.60;;;1.50;;
57599;SDS011;43426;43.594;24.334;2023-03-16T04:50:34;1.48;;;1.38;;
57599;SDS011;43426;43.594;24.334;2023-03-16T04:53:00;1.80;;;1.70;;
57599;SDS011;43426;43.594;24.334;2023-03-16T04:55:25;1.38;;;1.27;;
57599;SDS011;43426;43.594;24.334;2023-03-16T04:57:51;1.35;;;1.25;;
57599;SDS011;43426;43.594;24.334;2023-03-16T05:00:16;2.30;;;2.17;;
57599;SDS011;43426;43.594;24.334;2023-03-16T05:02:47;3.47;;;1.45;;
57599;SDS011;43426;43.594;24.334;2023-03-16T05:05:13;2.10;;;1.90;;
57599;SDS011;43426;43.594;24.334;2023-03-16T05:07:40;1.90;;;1.80;;
57599;SDS011;43426;43.594;24.334;2023-03-16T05:10:07;2.72;;;1.98;;
57599;SDS011;43426;43.594;24.334;2023-03-16T05:12:34;1.58;;;1.48;;
57599;SDS011;43426;43.594;24.334;2023-03-16T05:15:00;1.88;;;1.77;;
57599;SDS011;43426;43.594;24.334;2023-03-16T05:17:25;2.38;;;1.40;;
57599;SDS011;43426;43.594;24.334;2023-03-16T05:19:51;1.95;;;1.85;;
57599;SDS011;43426;43.594;24.334;2023-03-16T05:22:17;2.17;;;2.00;;
57599;SDS011;43426;43.594;24.334;2023-03-16T05:24:42;1.70;;;1.60;;
57599;SDS011;43426;43.594;24.334;2023-03-16T05:27:07;1.67;;;1.57;;
57599;SDS011;43426;43.594;24.334;2023-03-16T05:29:33;1.90;;;1.80;;
57599;SDS011;43426;43.594;24.334;2023-03-16T05:31:58;1.73;;;1.63;;
57599;SDS011;43426;43.594;24.334;2023-03-16T05:34:24;1.80;;;1.70;;
57599;SDS011;43426;43.594;24.334;2023-03-16T05:36:50;5.15;;;1.73;;
57599;SDS011;43426;43.594;24.334;2023-03-16T05:39:16;1.85;;;1.75;;
57599;SDS011;43426;43.594;24.334;2023-03-16T05:41:41;1.80;;;1.70;;
57599;SDS011;43426;43.594;24.334;2023-03-16T05:44:07;3.15;;;1.48;;
57599;SDS011;43426;43.594;24.334;2023-03-16T05:46:33;1.70;;;1.60;;
57599;SDS011;43426;43.594;24.334;2023-03-16T05:48:59;1.50;;;1.40;;
57599;SDS011;43426;43.594;24.334;2023-03-16T05:51:24;2.30;;;2.13;;
57599;SDS011;43426;43.594;24.334;2023-03-16T05:53:50;2.10;;;1.60;;
57599;SDS011;43426;43.594;24.334;2023-03-16T05:56:21;1.73;;;1.63;;
57599;SDS011;43426;43.594;24.334;2023-03-16T05:58:51;1.50;;;1.40;;
57599;SDS011;43426;43.594;24.334;2023-03-16T06:01:18;1.55;;;1.45;;
57599;SDS011;43426;43.594;24.334;2023-03-16T06:03:44;1.88;;;1.70;;
57599;SDS011;43426;43.594;24.334;2023-03-16T06:06:10;1.55;;;1.45;;
57599;SDS011;43426;43.594;24.334;2023-03-16T06:08:36;1.50;;;1.40;;
57599;SDS011;43426;43.594;24.334;2023-03-16T06:11:02;1.60;;;1.40;;
57599;SDS011;43426;43.594;24.334;2023-03-16T06:13:28;2.00;;;1.90;;
57599;SDS011;43426;43.594;24.334;2023-03-16T06:15:54;4.05;;;2.80;;
57599;SDS011;43426;43.594;24.334;2023-03-16T06:18:19;4.78;;;1.73;;
57599;SDS011;43426;43.594;24.334;2023-03-16T06:20:45;2.65;;;2.42;;
57599;SDS011;43426;43.594;24.334;2023-03-16T06:23:11;5.95;;;4.80;;
57599;SDS011;43426;43.594;24.334;2023-03-16T06:28:03;4.60;;;2.80;;
57599;SDS011;43426;43.594;24.334;2023-03-16T06:30:29;3.40;;;3.20;;
57599;SDS011;43426;43.594;24.334;2023-03-16T06:32:55;2.60;;;2.40;;
57599;SDS011;43426;43.594;24.334;2023-03-16T06:35:21;2.30;;;2.05;;
57599;SDS011;43426;43.594;24.334;2023-03-16T06:37:46;3.50;;;1.93;;
57599;SDS011;43426;43.594;24.334;2023-03-16T06:40:12;1.55;;;1.45;;
57599;SDS011;43426;43.594;24.334;2023-03-16T06:42:37;2.08;;;1.75;;
57599;SDS011;43426;43.594;24.334;2023-03-16T06:45:03;1.35;;;1.23;;
57599;SDS011;43426;43.594;24.334;2023-03-16T06:47:29;2.35;;;1.42;;
57599;SDS011;43426;43.594;24.334;2023-03-16T06:49:55;1.60;;;1.20;;
57599;SDS011;43426;43.594;24.334;2023-03-16T06:52:21;1.67;;;1.23;;
57599;SDS011;43426;43.594;24.334;2023-03-16T06:54:46;2.33;;;1.55;;
57599;SDS011;43426;43.594;24.334;2023-03-16T06:57:12;0.93;;;0.93;;
57599;SDS011;43426;43.594;24.334;2023-03-16T06:59:38;1.33;;;1.23;;
57599;SDS011;43426;43.594;24.334;2023-03-16T07:02:03;1.60;;;1.50;;
57599;SDS011;43426;43.594;24.334;2023-03-16T07:04:30;3.85;;;2.80;;
57599;SDS011;43426;43.594;24.334;2023-03-16T07:06:55;2.27;;;2.07;;
57599;SDS011;43426;43.594;24.334;2023-03-16T07:09:21;1.50;;;1.40;;
57599;SDS011;43426;43.594;24.334;2023-03-16T07:11:46;1.80;;;1.70;;
57599;SDS011;43426;43.594;24.334;2023-03-16T07:14:12;2.38;;;2.17;;
57599;SDS011;43426;43.594;24.334;2023-03-16T07:16:37;2.22;;;2.10;;
57599;SDS011;43426;43.594;24.334;2023-03-16T07:19:02;5.97;;;2.17;;
57599;SDS011;43426;43.594;24.334;2023-03-16T07:21:28;2.30;;;1.90;;
57599;SDS011;43426;43.594;24.334;2023-03-16T07:23:56;2.03;;;1.90;;
57599;SDS011;43426;43.594;24.334;2023-03-16T07:26:21;2.70;;;2.50;;
57599;SDS011;43426;43.594;24.334;2023-03-16T07:28:47;4.03;;;2.90;;
57599;SDS011;43426;43.594;24.334;2023-03-16T07:31:12;2.80;;;2.60;;
57599;SDS011;43426;43.594;24.334;2023-03-16T07:33:38;1.85;;;1.73;;
57599;SDS011;43426;43.594;24.334;2023-03-16T07:36:04;2.42;;;2.22;;
57599;SDS011;43426;43.594;24.334;2023-03-16T07:38:30;3.47;;;2.85;;
57599;SDS011;43426;43.594;24.334;2023-03-16T07:40:58;2.25;;;2.05;;
57599;SDS011;43426;43.594;24.334;2023-03-16T07:43:24;2.03;;;1.92;;
57599;SDS011;43426;43.594;24.334;2023-03-16T07:45:50;1.50;;;1.40;;
57599;SDS011;43426;43.594;24.334;2023-03-16T07:48:17;2.13;;;1.95;;
57599;SDS011;43426;43.594;24.334;2023-03-16T07:50:43;1.90;;;1.60;;
57599;SDS011;43426;43.594;24.334;2023-03-16T07:53:11;1.60;;;1.50;;
57599;SDS011;43426;43.594;24.334;2023-03-16T07:55:36;2.17;;;2.00;;
57599;SDS011;43426;43.594;24.334;2023-03-16T07:58:03;2.20;;;2.10;;
57599;SDS011;43426;43.594;24.334;2023-03-16T08:00:30;2.85;;;2.00;;
57599;SDS011;43426;43.594;24.334;2023-03-16T08:02:56;2.28;;;2.03;;
57599;SDS011;43426;43.594;24.334;2023-03-16T08:05:21;1.52;;;1.42;;
57599;SDS011;43426;43.594;24.334;2023-03-16T08:07:47;2.05;;;1.88;;
57599;SDS011;43426;43.594;24.334;2023-03-16T08:10:13;1.70;;;1.60;;
57599;SDS011;43426;43.594;24.334;2023-03-16T08:12:38;6.03;;;2.33;;
57599;SDS011;43426;43.594;24.334;2023-03-16T08:15:04;2.57;;;2.37;;
57599;SDS011;43426;43.594;24.334;2023-03-16T08:46:19;3.23;;;3.03;;
57599;SDS011;43426;43.594;24.334;2023-03-16T08:48:45;2.88;;;2.67;;
57599;SDS011;43426;43.594;24.334;2023-03-16T08:51:10;3.80;;;3.50;;
57599;SDS011;43426;43.594;24.334;2023-03-16T08:53:36;3.05;;;2.85;;
57599;SDS011;43426;43.594;24.334;2023-03-16T08:56:03;3.85;;;3.55;;
57599;SDS011;43426;43.594;24.334;2023-03-16T08:58:30;3.85;;;3.55;;
57599;SDS011;43426;43.594;24.334;2023-03-16T09:00:57;2.55;;;2.35;;
57599;SDS011;43426;43.594;24.334;2023-03-16T09:03:24;3.25;;;2.70;;
57599;SDS011;43426;43.594;24.334;2023-03-16T09:05:50;2.85;;;2.63;;
57599;SDS011;43426;43.594;24.334;2023-03-16T09:10:42;3.25;;;2.97;;
57599;SDS011;43426;43.594;24.334;2023-03-16T09:13:08;3.08;;;2.78;;
57599;SDS011;43426;43.594;24.334;2023-03-16T09:15:34;2.17;;;2.08;;
57599;SDS011;43426;43.594;24.334;2023-03-16T09:18:01;2.42;;;2.22;;
57599;SDS011;43426;43.594;24.334;2023-03-16T09:20:28;2.20;;;2.10;;
57599;SDS011;43426;43.594;24.334;2023-03-16T09:22:54;3.00;;;2.80;;
57599;SDS011;43426;43.594;24.334;2023-03-16T09:25:20;2.10;;;1.92;;
57599;SDS011;43426;43.594;24.334;2023-03-16T09:27:46;7.10;;;2.45;;
57599;SDS011;43426;43.594;24.334;2023-03-16T09:30:12;2.03;;;1.90;;
57599;SDS011;43426;43.594;24.334;2023-03-16T09:32:38;5.65;;;2.17;;
57599;SDS011;43426;43.594;24.334;2023-03-16T09:35:04;2.03;;;1.77;;
57599;SDS011;43426;43.594;24.334;2023-03-16T09:37:30;2.38;;;2.17;;
57599;SDS011;43426;43.594;24.334;2023-03-16T09:42:27;1.45;;;1.35;;
57599;SDS011;43426;43.594;24.334;2023-03-16T09:47:51;1.67;;;1.58;;
57599;SDS011;43426;43.594;24.334;2023-03-16T09:50:27;1.98;;;1.88;;
57599;SDS011;43426;43.594;24.334;2023-03-16T09:55:33;1.70;;;1.60;;
57599;SDS011;43426;43.594;24.334;2023-03-16T09:58:03;1.63;;;1.52;;
57599;SDS011;43426;43.594;24.334;2023-03-16T10:00:35;2.17;;;1.98;;
57599;SDS011;43426;43.594;24.334;2023-03-16T10:05:51;1.90;;;1.80;;
57599;SDS011;43426;43.594;24.334;2023-03-16T10:08:24;1.52;;;1.42;;
57599;SDS011;43426;43.594;24.334;2023-03-16T10:16:39;2.20;;;2.10;;
57599;SDS011;43426;43.594;24.334;2023-03-16T10:19:15;2.45;;;2.25;;
57599;SDS011;43426;43.594;24.334;2023-03-16T10:21:44;2.70;;;2.50;;
57599;SDS011;43426;43.594;24.334;2023-03-16T10:24:37;3.00;;;2.80;;
57599;SDS011;43426;43.594;24.334;2023-03-16T10:27:22;3.28;;;2.60;;
57599;SDS011;43426;43.594;24.334;2023-03-16T10:29:52;2.67;;;2.47;;
57599;SDS011;43426;43.594;24.334;2023-03-16T10:32:18;2.83;;;2.63;;
57599;SDS011;43426;43.594;24.334;2023-03-16T10:34:52;2.57;;;2.37;;
57599;SDS011;43426;43.594;24.334;2023-03-16T10:37:22;2.88;;;2.67;;
57599;SDS011;43426;43.594;24.334;2023-03-16T10:39:48;3.03;;;2.83;;
57599;SDS011;43426;43.594;24.334;2023-03-16T10:42:14;2.83;;;2.63;;
57599;SDS011;43426;43.594;24.334;2023-03-16T10:44:42;5.63;;;3.40;;
57599;SDS011;43426;43.594;24.334;2023-03-16T10:47:16;3.42;;;3.17;;
57599;SDS011;43426;43.594;24.334;2023-03-16T10:49:51;2.80;;;2.60;;
57599;SDS011;43426;43.594;24.334;2023-03-16T10:54:47;2.72;;;2.45;;
57599;SDS011;43426;43.594;24.334;2023-03-16T10:57:35;3.05;;;2.80;;
57599;SDS011;43426;43.594;24.334;2023-03-16T11:00:05;3.55;;;3.35;;
57599;SDS011;43426;43.594;24.334;2023-03-16T11:02:45;3.22;;;3.03;;
57599;SDS011;43426;43.594;24.334;2023-03-16T11:07:47;3.80;;;3.50;;
57599;SDS011;43426;43.594;24.334;2023-03-16T11:10:27;3.22;;;3.03;;
57599;SDS011;43426;43.594;24.334;2023-03-16T11:13:00;8.80;;;3.30;;
57599;SDS011;43426;43.594;24.334;2023-03-16T11:15:35;4.05;;;3.75;;
57599;SDS011;43426;43.594;24.334;2023-03-16T11:18:04;3.78;;;3.58;;
57599;SDS011;43426;43.594;24.334;2023-03-16T11:20:33;4.03;;;3.72;;
57599;SDS011;43426;43.594;24.334;2023-03-16T11:22:59;6.30;;;3.90;;
57599;SDS011;43426;43.594;24.334;2023-03-16T11:25:31;3.97;;;3.67;;
57599;SDS011;43426;43.594;24.334;2023-03-16T11:33:07;3.75;;;3.22;;
57599;SDS011;43426;43.594;24.334;2023-03-16T11:35:42;3.55;;;3.28;;
57599;SDS011;43426;43.594;24.334;2023-03-16T11:39:02;3.55;;;2.88;;
57599;SDS011;43426;43.594;24.334;2023-03-16T11:41:19;4.80;;;3.33;;
57599;SDS011;43426;43.594;24.334;2023-03-16T11:46:41;3.72;;;3.42;;
57599;SDS011;43426;43.594;24.334;2023-03-16T12:03:34;3.45;;;3.25;;
57599;SDS011;43426;43.594;24.334;2023-03-16T12:14:51;3.92;;;3.63;;
57599;SDS011;43426;43.594;24.334;2023-03-16T12:17:29;4.40;;;4.00;;
57599;SDS011;43426;43.594;24.334;2023-03-16T12:25:18;14.32;;;4.68;;
57599;SDS011;43426;43.594;24.334;2023-03-16T12:27:46;4.05;;;3.75;;
57599;SDS011;43426;43.594;24.334;2023-03-16T12:35:57;3.50;;;3.22;;
57599;SDS011;43426;43.594;24.334;2023-03-16T12:38:37;6.85;;;3.45;;
57599;SDS011;43426;43.594;24.334;2023-03-16T12:41:34;3.97;;;3.67;;
57599;SDS011;43426;43.594;24.334;2023-03-16T12:44:27;4.80;;;4.43;;
57599;SDS011;43426;43.594;24.334;2023-03-16T12:50:08;4.30;;;4.00;;
57599;SDS011;43426;43.594;24.334;2023-03-16T12:55:14;4.00;;;3.60;;
57599;SDS011;43426;43.594;24.334;2023-03-16T12:57:42;4.45;;;4.10;;
57599;SDS011;43426;43.594;24.334;2023-03-16T13:00:10;4.05;;;3.75;;
57599;SDS011;43426;43.594;24.334;2023-03-16T13:02:38;6.07;;;5.57;;
57599;SDS011;43426;43.594;24.334;2023-03-16T13:05:08;4.68;;;4.28;;
57599;SDS011;43426;43.594;24.334;2023-03-16T13:07:37;4.35;;;4.05;;
57599;SDS011;43426;43.594;24.334;2023-03-16T13:10:12;4.57;;;4.20;;
57599;SDS011;43426;43.594;24.334;2023-03-16T13:12:40;3.20;;;3.00;;
57599;SDS011;43426;43.594;24.334;2023-03-16T13:15:14;4.05;;;3.75;;
57599;SDS011;43426;43.594;24.334;2023-03-16T13:28:31;3.80;;;3.50;;
57599;SDS011;43426;43.594;24.334;2023-03-16T13:30:59;6.85;;;5.30;;
57599;SDS011;43426;43.594;24.334;2023-03-16T13:35:52;4.35;;;4.05;;
57599;SDS011;43426;43.594;24.334;2023-03-16T13:38:20;5.50;;;5.00;;
57599;SDS011;43426;43.594;24.334;2023-03-16T13:40:51;4.50;;;4.20;;
57599;SDS011;43426;43.594;24.334;2023-03-16T13:43:23;5.15;;;4.38;;
57599;SDS011;43426;43.594;24.334;2023-03-16T13:45:53;4.70;;;4.30;;
57599;SDS011;43426;43.594;24.334;2023-03-16T13:50:55;3.60;;;3.30;;
57599;SDS011;43426;43.594;24.334;2023-03-16T13:53:28;6.55;;;4.10;;
57599;SDS011;43426;43.594;24.334;2023-03-16T13:55:56;4.22;;;3.92;;
57599;SDS011;43426;43.594;24.334;2023-03-16T14:00:53;3.88;;;3.58;;
57599;SDS011;43426;43.594;24.334;2023-03-16T14:03:20;4.03;;;3.72;;
57599;SDS011;43426;43.594;24.334;2023-03-16T14:05:46;3.67;;;3.47;;
57599;SDS011;43426;43.594;24.334;2023-03-16T14:08:17;3.78;;;3.47;;
57599;SDS011;43426;43.594;24.334;2023-03-16T14:10:44;3.42;;;3.22;;
57599;SDS011;43426;43.594;24.334;2023-03-16T14:18:38;4.60;;;4.30;;
57599;SDS011;43426;43.594;24.334;2023-03-16T14:21:07;5.57;;;5.07;;
57599;SDS011;43426;43.594;24.334;2023-03-16T14:23:45;5.18;;;4.78;;
57599;SDS011;43426;43.594;24.334;2023-03-16T14:26:13;4.90;;;4.50;;
57599;SDS011;43426;43.594;24.334;2023-03-16T14:29:01;4.45;;;4.15;;
57599;SDS011;43426;43.594;24.334;2023-03-16T14:31:34;6.82;;;5.30;;
57599;SDS011;43426;43.594;24.334;2023-03-16T14:34:02;5.18;;;4.78;;
57599;SDS011;43426;43.594;24.334;2023-03-16T14:36:36;6.38;;;5.85;;
57599;SDS011;43426;43.594;24.334;2023-03-16T14:39:13;4.78;;;4.45;;
57599;SDS011;43426;43.594;24.334;2023-03-16T14:41:41;5.85;;;5.35;;
57599;SDS011;43426;43.594;24.334;2023-03-16T14:47:03;7.65;;;5.90;;
57599;SDS011;43426;43.594;24.334;2023-03-16T14:49:39;36.08;;;19.70;;
57599;SDS011;43426;43.594;24.334;2023-03-16T14:52:14;76.00;;;31.58;;
57599;SDS011;43426;43.594;24.334;2023-03-16T14:54:47;6.75;;;6.15;;
57599;SDS011;43426;43.594;24.334;2023-03-16T14:57:14;33.40;;;17.25;;
57599;SDS011;43426;43.594;24.334;2023-03-16T14:59:41;28.95;;;13.18;;
57599;SDS011;43426;43.594;24.334;2023-03-16T15:04:39;57.70;;;18.20;;
57599;SDS011;43426;43.594;24.334;2023-03-16T15:07:12;28.52;;;12.77;;
57599;SDS011;43426;43.594;24.334;2023-03-16T15:09:46;26.10;;;13.43;;
57599;SDS011;43426;43.594;24.334;2023-03-16T15:12:14;23.75;;;12.88;;
57599;SDS011;43426;43.594;24.334;2023-03-16T15:14:42;25.98;;;12.80;;
57599;SDS011;43426;43.594;24.334;2023-03-16T15:17:26;22.23;;;11.30;;
57599;SDS011;43426;43.594;24.334;2023-03-16T15:19:52;21.97;;;11.20;;
57599;SDS011;43426;43.594;24.334;2023-03-16T15:22:19;93.72;;;29.98;;
57599;SDS011;43426;43.594;24.334;2023-03-16T15:24:51;118.75;;;33.20;;
57599;SDS011;43426;43.594;24.334;2023-03-16T15:27:18;14.27;;;11.45;;
57599;SDS011;43426;43.594;24.334;2023-03-16T15:29:46;20.67;;;12.45;;
57599;SDS011;43426;43.594;24.334;2023-03-16T15:32:12;65.70;;;20.27;;
57599;SDS011;43426;43.594;24.334;2023-03-16T15:34:40;24.23;;;13.98;;
57599;SDS011;43426;43.594;24.334;2023-03-16T15:37:09;39.88;;;17.88;;
57599;SDS011;43426;43.594;24.334;2023-03-16T15:39:37;21.25;;;13.85;;
57599;SDS011;43426;43.594;24.334;2023-03-16T15:42:07;33.95;;;15.60;;
57599;SDS011;43426;43.594;24.334;2023-03-16T15:44:38;21.48;;;14.57;;
57599;SDS011;43426;43.594;24.334;2023-03-16T15:47:03;42.80;;;17.27;;
57599;SDS011;43426;43.594;24.334;2023-03-16T15:49:29;19.23;;;14.50;;
57599;SDS011;43426;43.594;24.334;2023-03-16T15:51:55;28.13;;;15.70;;
57599;SDS011;43426;43.594;24.334;2023-03-16T15:54:20;24.25;;;14.60;;
57599;SDS011;43426;43.594;24.334;2023-03-16T15:56:46;18.00;;;13.30;;
57599;SDS011;43426;43.594;24.334;2023-03-16T15:59:12;26.58;;;14.50;;
57599;SDS011;43426;43.594;24.334;2023-03-16T16:01:41;28.40;;;14.25;;
57599;SDS011;43426;43.594;24.334;2023-03-16T16:04:13;25.58;;;14.20;;
57599;SDS011;43426;43.594;24.334;2023-03-16T16:06:44;33.10;;;19.08;;
57599;SDS011;43426;43.594;24.334;2023-03-16T16:09:13;34.83;;;18.15;;
57599;SDS011;43426;43.594;24.334;2023-03-16T16:14:07;45.22;;;16.25;;
57599;SDS011;43426;43.594;24.334;2023-03-16T16:16:39;35.85;;;17.92;;
57599;SDS011;43426;43.594;24.334;2023-03-16T16:19:11;23.67;;;14.10;;
57599;SDS011;43426;43.594;24.334;2023-03-16T16:21:38;14.55;;;11.57;;
57599;SDS011;43426;43.594;24.334;2023-03-16T16:24:03;20.08;;;12.38;;
57599;SDS011;43426;43.594;24.334;2023-03-16T16:26:48;10.50;;;9.40;;
57599;SDS011;43426;43.594;24.334;2023-03-16T16:29:15;22.60;;;12.63;;
57599;SDS011;43426;43.594;24.334;2023-03-16T16:31:42;27.65;;;14.25;;
57599;SDS011;43426;43.594;24.334;2023-03-16T16:34:12;20.27;;;12.27;;
57599;SDS011;43426;43.594;24.334;2023-03-16T16:36:38;14.15;;;10.63;;
57599;SDS011;43426;43.594;24.334;2023-03-16T16:39:04;17.98;;;11.90;;
57599;SDS011;43426;43.594;24.334;2023-03-16T16:41:31;21.33;;;12.77;;
57599;SDS011;43426;43.594;24.334;2023-03-16T16:43:59;26.13;;;13.73;;
57599;SDS011;43426;43.594;24.334;2023-03-16T16:46:32;19.13;;;12.32;;
57599;SDS011;43426;43.594;24.334;2023-03-16T16:49:05;29.48;;;11.98;;
57599;SDS011;43426;43.594;24.334;2023-03-16T16:51:37;22.80;;;12.17;;
57599;SDS011;43426;43.594;24.334;2023-03-16T16:54:22;18.77;;;11.23;;
57599;SDS011;43426;43.594;24.334;2023-03-16T16:56:50;24.02;;;13.13;;
57599;SDS011;43426;43.594;24.334;2023-03-16T16:59:18;12.00;;;9.65;;
57599;SDS011;43426;43.594;24.334;2023-03-16T17:01:46;10.23;;;8.20;;
57599;SDS011;43426;43.594;24.334;2023-03-16T17:04:18;12.35;;;9.45;;
57599;SDS011;43426;43.594;24.334;2023-03-16T17:06:49;12.82;;;9.20;;
57599;SDS011;43426;43.594;24.334;2023-03-16T17:09:19;19.48;;;11.65;;